Time;durP1;ratioP1;P1;durP2;ratioP2;P2;SDS_P1;SDS_P2;PMS_P1;PMS_P2;Temp;Humidity;BMP_temperature;BMP_pressure;BME280_temperature;BME280_humidity;BME280_pressure;Samples;Min_cycle;Max_cycle;Signal;HPM_P1;HPM_P2
2023/03/31 00:00:56;;;;;;;;;;;;;;;;;;7368354;19;869;-66
2023/03/31 00:03:25;;;;;;;;;;;;;;;;;;7368770;19;867;-66
2023/03/31 00:05:53;;;;;;;;;;;;;;;;;;7367424;19;1270;-67
2023/03/31 00:08:21;;;;;;;;;;;;;;;;;;7368329;19;841;-66
2023/03/31 00:10:49;;;;;;;;;;;;;;;;;;7368490;19;853;-66
2023/03/31 00:13:17;;;;;;;;;;;;;;;;;;7369169;19;816;-66
2023/03/31 00:15:45;;;;;;;;;;;;;;;;;;7365469;19;1833;-67
2023/03/31 00:18:14;;;;;;;;;;;;;;;;;;7367513;19;846;-66
2023/03/31 00:20:42;;;;;;;;;;;;;;;;;;7367784;19;856;-66
2023/03/31 00:23:13;;;;;;;;;;;;;;;;;;7370680;19;1783;-66
2023/03/31 00:25:42;;;;;;;;;;;;;;;;;;7367842;19;1384;-67
2023/03/31 00:28:10;;;;;;;;;;;;;;;;;;7367707;19;873;-66
2023/03/31 00:30:38;;;;;;;;;;;;;;;;;;7367168;19;859;-67
2023/03/31 00:33:07;;;;;;;;;;;;;;;;;;7366617;19;848;-66
2023/03/31 00:35:37;;;;;;;;;;;;;;;;;;7366627;19;1838;-66
2023/03/31 00:38:07;;;;;;;;;;;;;;;;;;7365739;19;767;-66
2023/03/31 00:40:35;;;;;;;;;;;;;;;;;;7367481;19;918;-67
2023/03/31 00:43:05;;;;;;;;;;;;;;;;;;7367846;19;801;-66
2023/03/31 00:45:33;;;;;;;;;;;;;;;;;;7366046;19;956;-66
2023/03/31 00:48:02;;;;;;;;;;;;;;;;;;7365598;19;842;-66
2023/03/31 00:50:30;;;;;;;;;;;;;;;;;;7369191;19;1761;-67
2023/03/31 00:52:58;;;;;;;;;;;;;;;;;;7365973;19;812;-67
2023/03/31 00:55:27;;;;;;;;;;;;;;;;;;7366864;19;1840;-67
2023/03/31 00:57:56;;;;;;;;;;;;;;;;;;7362450;19;1239;-66
2023/03/31 01:00:24;;;;;;;;;;;;;;;;;;7368472;19;806;-67
2023/03/31 01:02:54;;;;;;;;;;;;;;;;;;7367609;19;822;-66
2023/03/31 01:05:22;;;;;;;;;;;;;;;;;;7366129;19;799;-66
2023/03/31 01:07:51;;;;;;;;;;;;;;;;;;7362751;19;1350;-66
2023/03/31 01:10:19;;;;;;;;;;;;;;;;;;7367696;19;763;-66
2023/03/31 01:12:50;;;;;;;;;;;;;;;;;;7367278;19;723;-65
2023/03/31 01:15:18;;;;;;;;;;;;;;;;;;7369890;19;1833;-66
2023/03/31 01:17:49;;;;;;;;;;;;;;;;;;7367666;19;1881;-67
2023/03/31 01:20:18;;;;;;;;;;;;;;;;;;7368546;19;1807;-68
2023/03/31 01:22:48;;;;;;;;;;;;;;;;;;7367693;19;826;-68
2023/03/31 01:25:16;;;;;;;;;;;;;;;;;;7367561;19;782;-69
2023/03/31 01:27:44;;;;;;;;;;;;;;;;;;7363544;19;1279;-68
2023/03/31 01:30:12;;;;;;;;;;;;;;;;;;7368579;19;857;-68
2023/03/31 01:32:41;;;;;;;;;;;;;;;;;;7367617;19;836;-68
2023/03/31 01:35:09;;;;;;;;;;;;;;;;;;7370589;19;1853;-68
2023/03/31 01:37:37;;;;;;;;;;;;;;;;;;7366570;19;1294;-69
2023/03/31 01:40:08;;;;;;;;;;;;;;;;;;7368607;19;799;-68
2023/03/31 01:42:37;;;;;;;;;;;;;;;;;;7367339;19;773;-69
2023/03/31 01:45:07;;;;;;;;;;;;;;;;;;7367604;19;814;-68
2023/03/31 01:47:39;;;;;;;;;;;;;;;;;;7366516;19;1638;-67
2023/03/31 01:50:07;;;;;;;;;;;;;;;;;;7368789;19;750;-66
2023/03/31 01:52:36;;;;;;;;;;;;;;;;;;7369383;19;841;-67
2023/03/31 01:55:04;;;;;;;;;;;;;;;;;;7367715;19;1853;-67
2023/03/31 01:57:32;;;;;;;;;;;;;;;;;;7366029;19;1353;-68
2023/03/31 02:00:00;;;;;;;;;;;;;;;;;;7364651;19;800;-66
2023/03/31 02:02:28;;;;;;;;;;;;;;;;;;7366618;19;769;-68
2023/03/31 02:04:57;;;;;;;;;;;;;;;;;;7368358;19;1874;-66
2023/03/31 02:07:26;;;;;;;;;;;;;;;;;;7365265;19;2171;-67
2023/03/31 02:09:55;;;;;;;;;;;;;;;;;;7365957;19;861;-66
2023/03/31 02:12:23;;;;;;;;;;;;;;;;;;7364267;19;863;-67
2023/03/31 02:14:51;;;;;;;;;;;;;;;;;;7364796;19;848;-66
2023/03/31 02:17:19;;;;;;;;;;;;;;;;;;7362921;19;1833;-66
2023/03/31 02:19:48;;;;;;;;;;;;;;;;;;7364251;19;837;-67
2023/03/31 02:22:16;;;;;;;;;;;;;;;;;;7366225;19;857;-66
2023/03/31 02:24:44;;;;;;;;;;;;;;;;;;7365940;19;862;-66
2023/03/31 02:27:12;;;;;;;;;;;;;;;;;;7362891;19;1282;-67
2023/03/31 02:29:41;;;;;;;;;;;;;;;;;;7363861;19;846;-67
2023/03/31 02:32:10;;;;;;;;;;;;;;;;;;7364147;19;870;-66
2023/03/31 02:34:38;;;;;;;;;;;;;;;;;;7365157;19;1785;-66
2023/03/31 02:37:07;;;;;;;;;;;;;;;;;;7363037;19;1855;-66
2023/03/31 02:39:35;;;;;;;;;;;;;;;;;;7363468;19;806;-65
2023/03/31 02:42:06;;;;;;;;;;;;;;;;;;7364073;19;875;-66
2023/03/31 02:44:34;;;;;;;;;;;;;;;;;;7364456;19;797;-66
2023/03/31 02:47:02;;;;;;;;;;;;;;;;;;7361867;19;1285;-66
2023/03/31 02:49:30;;;;;;;;;;;;;;;;;;7362990;19;836;-66
2023/03/31 02:51:59;;;;;;;;;;;;;;;;;;7364905;19;866;-66
2023/03/31 02:54:27;;;;;;;;;;;;;;;;;;7370112;19;861;-67
2023/03/31 02:56:59;;;;;;;;;;;;;;;;;;7367658;19;1852;-67
2023/03/31 02:59:27;;;;;;;;;;;;;;;;;;7368796;19;862;-66
2023/03/31 03:01:55;;;;;;;;;;;;;;;;;;7368486;19;814;-65
2023/03/31 03:04:24;;;;;;;;;;;;;;;;;;7370292;19;1792;-67
2023/03/31 03:06:53;;;;;;;;;;;;;;;;;;7366755;19;1353;-66
2023/03/31 03:09:25;;;;;;;;;;;;;;;;;;7368379;19;905;-66
2023/03/31 03:11:53;;;;;;;;;;;;;;;;;;7368981;19;806;-67
2023/03/31 03:14:21;;;;;;;;;;;;;;;;;;7369217;19;792;-67
2023/03/31 03:16:50;;;;;;;;;;;;;;;;;;7367842;19;1857;-67
2023/03/31 03:19:19;;;;;;;;;;;;;;;;;;7370616;19;742;-68
2023/03/31 03:21:47;;;;;;;;;;;;;;;;;;7370250;19;837;-67
2023/03/31 03:24:15;;;;;;;;;;;;;;;;;;7370875;19;790;-69
2023/03/31 03:26:44;;;;;;;;;;;;;;;;;;7369497;19;1288;-67
2023/03/31 03:29:12;;;;;;;;;;;;;;;;;;7371107;19;1828;-67
2023/03/31 03:31:40;;;;;;;;;;;;;;;;;;7369962;19;862;-66
2023/03/31 03:34:08;;;;;;;;;;;;;;;;;;7369992;19;879;-67
2023/03/31 03:36:36;;;;;;;;;;;;;;;;;;7369813;19;1838;-67
2023/03/31 03:39:06;;;;;;;;;;;;;;;;;;7369764;19;885;-67
2023/03/31 03:41:34;;;;;;;;;;;;;;;;;;7370983;19;875;-67
2023/03/31 03:44:02;;;;;;;;;;;;;;;;;;7370272;19;849;-68
2023/03/31 03:46:30;;;;;;;;;;;;;;;;;;7368627;19;1250;-68
2023/03/31 03:48:59;;;;;;;;;;;;;;;;;;7369314;19;849;-67
2023/03/31 03:51:27;;;;;;;;;;;;;;;;;;7370124;19;865;-68
2023/03/31 03:53:55;;;;;;;;;;;;;;;;;;7370042;19;879;-67
2023/03/31 03:56:23;;;;;;;;;;;;;;;;;;7369079;19;1834;-67
2023/03/31 03:58:51;;;;;;;;;;;;;;;;;;7369767;19;906;-68
2023/03/31 04:01:19;;;;;;;;;;;;;;;;;;7369093;19;846;-69
2023/03/31 04:03:48;;;;;;;;;;;;;;;;;;7367889;19;839;-70
2023/03/31 04:06:16;;;;;;;;;;;;;;;;;;7368724;19;1298;-69
2023/03/31 04:08:44;;;;;;;;;;;;;;;;;;7367061;19;851;-69
2023/03/31 04:11:12;;;;;;;;;;;;;;;;;;7368384;19;804;-69
2023/03/31 04:13:40;;;;;;;;;;;;;;;;;;7368975;19;869;-69
2023/03/31 04:16:09;;;;;;;;;;;;;;;;;;7368603;19;1845;-69
2023/03/31 04:18:41;;;;;;;;;;;;;;;;;;7369527;19;1712;-67
2023/03/31 04:21:11;;;;;;;;;;;;;;;;;;7369642;19;763;-67
2023/03/31 04:23:41;;;;;;;;;;;;;;;;;;7369048;19;879;-67
2023/03/31 04:26:10;;;;;;;;;;;;;;;;;;7368338;19;1353;-68
2023/03/31 04:28:41;;;;;;;;;;;;;;;;;;7372886;19;1447;-68
2023/03/31 04:31:09;;;;;;;;;;;;;;;;;;7370095;19;720;-67
2023/03/31 04:33:38;;;;;;;;;;;;;;;;;;7369662;19;857;-69
2023/03/31 04:36:06;;;;;;;;;;;;;;;;;;7369926;19;1844;-69
2023/03/31 04:38:35;;;;;;;;;;;;;;;;;;7369572;19;870;-67
2023/03/31 04:41:03;;;;;;;;;;;;;;;;;;7373005;19;713;-69
2023/03/31 04:43:31;;;;;;;;;;;;;;;;;;7369174;19;780;-70
2023/03/31 04:45:59;;;;;;;;;;;;;;;;;;7368327;19;1320;-69
2023/03/31 04:48:27;;;;;;;;;;;;;;;;;;7368881;19;801;-69
2023/03/31 04:50:55;;;;;;;;;;;;;;;;;;7368180;19;835;-69
2023/03/31 04:53:24;;;;;;;;;;;;;;;;;;7370333;19;1849;-69
2023/03/31 04:55:53;;;;;;;;;;;;;;;;;;7367699;19;1278;-69
2023/03/31 04:58:21;;;;;;;;;;;;;;;;;;7366529;19;946;-68
2023/03/31 05:00:49;;;;;;;;;;;;;;;;;;7368597;19;864;-69
2023/03/31 05:03:17;;;;;;;;;;;;;;;;;;7368550;19;809;-69
2023/03/31 05:05:45;;;;;;;;;;;;;;;;;;7367642;19;1339;-68
2023/03/31 05:08:13;;;;;;;;;;;;;;;;;;7370020;19;1117;-70
2023/03/31 05:10:42;;;;;;;;;;;;;;;;;;7371103;19;1678;-68
2023/03/31 05:13:10;;;;;;;;;;;;;;;;;;7368540;19;834;-69
2023/03/31 05:15:38;;;;;;;;;;;;;;;;;;7368342;19;1261;-70
2023/03/31 05:18:06;;;;;;;;;;;;;;;;;;7372008;19;1838;-69
2023/03/31 05:20:35;;;;;;;;;;;;;;;;;;7376279;19;1857;-69
2023/03/31 05:23:03;;;;;;;;;;;;;;;;;;7375333;19;754;-70
2023/03/31 05:25:32;;;;;;;;;;;;;;;;;;7371778;19;876;-68
2023/03/31 05:28:01;;;;;;;;;;;;;;;;;;7367753;19;1342;-68
2023/03/31 05:30:29;;;;;;;;;;;;;;;;;;7371564;19;837;-68
2023/03/31 05:32:57;;;;;;;;;;;;;;;;;;7370530;19;861;-67
2023/03/31 05:35:25;;;;;;;;;;;;;;;;;;7368717;19;866;-68
2023/03/31 05:37:53;;;;;;;;;;;;;;;;;;7363893;19;1883;-68
2023/03/31 05:40:22;;;;;;;;;;;;;;;;;;7367209;19;850;-70
2023/03/31 05:42:50;;;;;;;;;;;;;;;;;;7368039;19;801;-69
2023/03/31 05:45:18;;;;;;;;;;;;;;;;;;7366728;19;813;-69
2023/03/31 05:47:46;;;;;;;;;;;;;;;;;;7360772;19;1275;-69
2023/03/31 05:50:14;;;;;;;;;;;;;;;;;;7365045;19;787;-67
2023/03/31 05:52:42;;;;;;;;;;;;;;;;;;7366175;19;781;-68
2023/03/31 05:55:12;;;;;;;;;;;;;;;;;;7366057;19;878;-69
2023/03/31 05:57:40;;;;;;;;;;;;;;;;;;7360033;19;1836;-65
2023/03/31 06:00:10;;;;;;;;;;;;;;;;;;7366043;19;2139;-69
2023/03/31 06:02:39;;;;;;;;;;;;;;;;;;7370582;19;1787;-67
2023/03/31 06:05:07;;;;;;;;;;;;;;;;;;7364270;19;1762;-67
2023/03/31 06:07:36;;;;;;;;;;;;;;;;;;7367408;19;2194;-68
2023/03/31 06:10:06;;;;;;;;;;;;;;;;;;7365609;19;851;-67
2023/03/31 06:12:35;;;;;;;;;;;;;;;;;;7364965;19;774;-68
2023/03/31 06:15:03;;;;;;;;;;;;;;;;;;7366529;19;858;-68
2023/03/31 06:17:31;;;;;;;;;;;;;;;;;;7362974;19;1897;-68
2023/03/31 06:19:59;;;;;;;;;;;;;;;;;;7365068;19;849;-68
2023/03/31 06:22:27;;;;;;;;;;;;;;;;;;7366135;19;867;-67
2023/03/31 06:24:55;;;;;;;;;;;;;;;;;;7364321;19;774;-67
2023/03/31 06:27:23;;;;;;;;;;;;;;;;;;7361103;19;1324;-67
2023/03/31 06:29:52;;;;;;;;;;;;;;;;;;7365591;19;1819;-67
2023/03/31 06:32:20;;;;;;;;;;;;;;;;;;7365331;19;846;-68
2023/03/31 06:34:48;;;;;;;;;;;;;;;;;;7364166;19;856;-67
2023/03/31 06:37:16;;;;;;;;;;;;;;;;;;7363153;19;1858;-67
2023/03/31 06:39:45;;;;;;;;;;;;;;;;;;7365059;19;789;-68
2023/03/31 06:42:14;;;;;;;;;;;;;;;;;;7367765;19;1771;-67
2023/03/31 06:44:42;;;;;;;;;;;;;;;;;;7364252;19;832;-67
2023/03/31 06:47:10;;;;;;;;;;;;;;;;;;7362354;19;1317;-67
2023/03/31 06:49:38;;;;;;;;;;;;;;;;;;7363819;19;784;-66
2023/03/31 06:52:06;;;;;;;;;;;;;;;;;;7364598;19;704;-67
2023/03/31 06:54:35;;;;;;;;;;;;;;;;;;7364273;19;893;-66
2023/03/31 06:57:03;;;;;;;;;;;;;;;;;;7360993;19;2164;-66
2023/03/31 06:59:31;;;;;;;;;;;;;;;;;;7363724;19;778;-67
2023/03/31 07:01:59;;;;;;;;;;;;;;;;;;7365347;19;857;-66
2023/03/31 07:04:27;;;;;;;;;;;;;;;;;;7362686;19;878;-67
2023/03/31 07:06:55;;;;;;;;;;;;;;;;;;7364412;19;1838;-66
2023/03/31 07:09:24;;;;;;;;;;;;;;;;;;7363350;19;786;-67
2023/03/31 07:11:52;;;;;;;;;;;;;;;;;;7364905;19;794;-67
2023/03/31 07:14:21;;;;;;;;;;;;;;;;;;7364133;19;768;-67
2023/03/31 07:16:49;;;;;;;;;;;;;;;;;;7363305;19;1852;-67
2023/03/31 07:19:18;;;;;;;;;;;;;;;;;;7365910;19;1765;-68
2023/03/31 07:21:46;;;;;;;;;;;;;;;;;;7365254;19;741;-68
2023/03/31 07:24:14;;;;;;;;;;;;;;;;;;7364868;19;865;-69
2023/03/31 07:26:42;;;;;;;;;;;;;;;;;;7363428;19;1352;-68
2023/03/31 07:29:10;;;;;;;;;;;;;;;;;;7363464;19;790;-69
2023/03/31 07:31:38;;;;;;;;;;;;;;;;;;7363673;19;808;-68
2023/03/31 07:34:06;;;;;;;;;;;;;;;;;;7366591;19;1781;-68
2023/03/31 07:36:35;;;;;;;;;;;;;;;;;;7360385;19;1278;-67
2023/03/31 07:39:03;;;;;;;;;;;;;;;;;;7360501;19;1838;-68
2023/03/31 07:41:31;;;;;;;;;;;;;;;;;;7373730;19;2047;-67
2023/03/31 07:43:59;;;;;;;;;;;;;;;;;;7370735;19;806;-69
2023/03/31 07:46:27;;;;;;;;;;;;;;;;;;7369803;19;1587;-69
2023/03/31 07:48:55;;;;;;;;;;;;;;;;;;7372772;19;1806;-69
2023/03/31 07:51:24;;;;;;;;;;;;;;;;;;7369759;19;890;-69
2023/03/31 07:53:52;;;;;;;;;;;;;;;;;;7370028;19;834;-67
2023/03/31 07:56:20;;;;;;;;;;;;;;;;;;7368380;19;1322;-68
2023/03/31 07:58:48;;;;;;;;;;;;;;;;;;7366198;19;1865;-68
2023/03/31 08:01:18;;;;;;;;;;;;;;;;;;7370598;19;803;-68
2023/03/31 08:03:46;;;;;;;;;;;;;;;;;;7369787;19;904;-69
2023/03/31 08:06:14;;;;;;;;;;;;;;;;;;7368022;19;1329;-68
2023/03/31 08:08:43;;;;;;;;;;;;;;;;;;7368218;19;834;-67
2023/03/31 08:11:11;;;;;;;;;;;;;;;;;;7367650;19;818;-68
2023/03/31 08:13:39;;;;;;;;;;;;;;;;;;7367467;19;810;-68
2023/03/31 08:16:07;;;;;;;;;;;;;;;;;;7367899;19;1286;-68
2023/03/31 08:18:36;;;;;;;;;;;;;;;;;;7366132;19;1854;-68
2023/03/31 08:21:04;;;;;;;;;;;;;;;;;;7367940;19;858;-67
2023/03/31 08:23:32;;;;;;;;;;;;;;;;;;7368247;19;841;-68
2023/03/31 08:26:00;;;;;;;;;;;;;;;;;;7367993;19;1361;-68
2023/03/31 08:28:29;;;;;;;;;;;;;;;;;;7368324;19;798;-69
2023/03/31 08:30:57;;;;;;;;;;;;;;;;;;7366991;19;803;-67
2023/03/31 08:33:25;;;;;;;;;;;;;;;;;;7369938;19;845;-67
2023/03/31 08:35:53;;;;;;;;;;;;;;;;;;7368207;19;1291;-68
2023/03/31 08:38:21;;;;;;;;;;;;;;;;;;7365502;19;1845;-67
2023/03/31 08:40:49;;;;;;;;;;;;;;;;;;7368129;19;815;-67
2023/03/31 08:43:18;;;;;;;;;;;;;;;;;;7369110;19;814;-67
2023/03/31 08:45:46;;;;;;;;;;;;;;;;;;7366819;19;1358;-66
2023/03/31 08:48:15;;;;;;;;;;;;;;;;;;7364994;19;807;-66
2023/03/31 08:50:43;;;;;;;;;;;;;;;;;;7366662;19;770;-66
2023/03/31 08:53:11;;;;;;;;;;;;;;;;;;7367143;19;850;-66
2023/03/31 08:55:40;;;;;;;;;;;;;;;;;;7367526;19;1349;-66
2023/03/31 08:58:08;;;;;;;;;;;;;;;;;;7365678;19;1857;-66
2023/03/31 09:00:36;;;;;;;;;;;;;;;;;;7367523;19;801;-66
2023/03/31 09:03:04;;;;;;;;;;;;;;;;;;7367506;19;822;-67
2023/03/31 09:05:32;;;;;;;;;;;;;;;;;;7366772;19;794;-67
2023/03/31 09:08:01;;;;;;;;;;;;;;;;;;7364255;19;1368;-66
2023/03/31 09:10:29;;;;;;;;;;;;;;;;;;7367355;19;844;-67
2023/03/31 09:12:58;;;;;;;;;;;;;;;;;;7367553;19;822;-67
2023/03/31 09:15:26;;;;;;;;;;;;;;;;;;7367647;19;790;-66
2023/03/31 09:17:54;;;;;;;;;;;;;;;;;;7363203;19;1861;-65
2023/03/31 09:20:22;;;;;;;;;;;;;;;;;;7367581;19;847;-66
2023/03/31 09:22:50;;;;;;;;;;;;;;;;;;7367604;19;822;-67
2023/03/31 09:25:18;;;;;;;;;;;;;;;;;;7367286;19;845;-67
2023/03/31 09:27:47;;;;;;;;;;;;;;;;;;7361512;19;1385;-68
2023/03/31 09:30:16;;;;;;;;;;;;;;;;;;7367432;19;988;-66
2023/03/31 09:32:45;;;;;;;;;;;;;;;;;;7367298;19;795;-66
2023/03/31 09:35:13;;;;;;;;;;;;;;;;;;7367313;19;878;-67
2023/03/31 09:37:41;;;;;;;;;;;;;;;;;;7362609;19;1861;-67
2023/03/31 09:40:10;;;;;;;;;;;;;;;;;;7369550;19;1550;-67
2023/03/31 09:42:38;;;;;;;;;;;;;;;;;;7367099;19;937;-66
2023/03/31 09:45:06;;;;;;;;;;;;;;;;;;7367609;19;871;-66
2023/03/31 09:47:37;;;;;;;;;;;;;;;;;;7364248;19;1345;-66
2023/03/31 09:50:06;;;;;;;;;;;;;;;;;;7367451;19;825;-66
2023/03/31 09:52:34;;;;;;;;;;;;;;;;;;7366389;19;884;-67
2023/03/31 09:55:02;;;;;;;;;;;;;;;;;;7366614;19;914;-66
2023/03/31 09:57:30;;;;;;;;;;;;;;;;;;7363623;19;1854;-67
2023/03/31 09:59:58;;;;;;;;;;;;;;;;;;7365916;19;792;-68
2023/03/31 10:02:26;;;;;;;;;;;;;;;;;;7364712;19;797;-67
2023/03/31 10:04:55;;;;;;;;;;;;;;;;;;7366297;19;849;-66
2023/03/31 10:07:23;;;;;;;;;;;;;;;;;;7363266;19;1325;-66
2023/03/31 10:09:51;;;;;;;;;;;;;;;;;;7365277;19;850;-66
2023/03/31 10:12:23;;;;;;;;;;;;;;;;;;7366492;19;865;-65
2023/03/31 10:14:51;;;;;;;;;;;;;;;;;;7365869;19;789;-65
2023/03/31 10:17:19;;;;;;;;;;;;;;;;;;7363689;19;1332;-66
2023/03/31 10:19:47;;;;;;;;;;;;;;;;;;7362195;19;1850;-66
2023/03/31 10:22:15;;;;;;;;;;;;;;;;;;7365721;19;778;-65
2023/03/31 10:24:44;;;;;;;;;;;;;;;;;;7366088;19;822;-65
2023/03/31 10:27:12;;;;;;;;;;;;;;;;;;7363241;19;1309;-66
2023/03/31 10:29:40;;;;;;;;;;;;;;;;;;7363293;19;886;-66
2023/03/31 10:32:08;;;;;;;;;;;;;;;;;;7365651;19;794;-67
2023/03/31 10:34:39;;;;;;;;;;;;;;;;;;7360362;19;1165;-66
2023/03/31 10:37:07;;;;;;;;;;;;;;;;;;7363283;19;1254;-66
2023/03/31 10:39:37;;;;;;;;;;;;;;;;;;7362085;19;1837;-66
2023/03/31 10:42:05;;;;;;;;;;;;;;;;;;7366068;19;940;-65
2023/03/31 10:44:34;;;;;;;;;;;;;;;;;;7365578;19;803;-66
2023/03/31 10:47:02;;;;;;;;;;;;;;;;;;7363014;19;1281;-65
2023/03/31 10:49:30;;;;;;;;;;;;;;;;;;7364467;19;814;-66
2023/03/31 10:51:59;;;;;;;;;;;;;;;;;;7364898;19;873;-67
2023/03/31 10:54:28;;;;;;;;;;;;;;;;;;7364592;19;839;-67
2023/03/31 10:56:56;;;;;;;;;;;;;;;;;;7363819;19;1317;-67
2023/03/31 10:59:24;;;;;;;;;;;;;;;;;;7362135;19;1842;-68
2023/03/31 11:01:52;;;;;;;;;;;;;;;;;;7365024;19;796;-65
2023/03/31 11:04:20;;;;;;;;;;;;;;;;;;7367393;19;795;-67
2023/03/31 11:06:49;;;;;;;;;;;;;;;;;;7366059;19;1313;-67
2023/03/31 11:09:17;;;;;;;;;;;;;;;;;;7366947;19;800;-67
2023/03/31 11:11:45;;;;;;;;;;;;;;;;;;7367410;19;1225;-68
2023/03/31 11:14:13;;;;;;;;;;;;;;;;;;7370983;19;814;-67
2023/03/31 11:16:42;;;;;;;;;;;;;;;;;;7371675;19;1301;-68
2023/03/31 11:19:10;;;;;;;;;;;;;;;;;;7370636;19;1837;-67
2023/03/31 11:21:39;;;;;;;;;;;;;;;;;;7371923;19;861;-68
2023/03/31 11:24:07;;;;;;;;;;;;;;;;;;7371837;19;805;-67
2023/03/31 11:26:35;;;;;;;;;;;;;;;;;;7369014;19;1285;-68
2023/03/31 11:29:04;;;;;;;;;;;;;;;;;;7369396;19;853;-68
2023/03/31 11:31:32;;;;;;;;;;;;;;;;;;7370969;19;855;-68
2023/03/31 11:34:00;;;;;;;;;;;;;;;;;;7368973;19;854;-68
2023/03/31 11:36:28;;;;;;;;;;;;;;;;;;7369109;19;1277;-68
2023/03/31 11:38:56;;;;;;;;;;;;;;;;;;7367754;19;1850;-68
2023/03/31 11:41:26;;;;;;;;;;;;;;;;;;7369154;19;810;-69
2023/03/31 11:43:54;;;;;;;;;;;;;;;;;;7369686;19;883;-68
2023/03/31 11:46:22;;;;;;;;;;;;;;;;;;7368412;19;1282;-68
2023/03/31 11:48:50;;;;;;;;;;;;;;;;;;7368918;19;850;-69
2023/03/31 11:51:18;;;;;;;;;;;;;;;;;;7369709;19;819;-69
2023/03/31 11:53:46;;;;;;;;;;;;;;;;;;7369216;19;821;-68
2023/03/31 11:56:15;;;;;;;;;;;;;;;;;;7368084;19;1259;-68
2023/03/31 11:58:43;;;;;;;;;;;;;;;;;;7366920;19;1853;-67
2023/03/31 12:01:12;;;;;;;;;;;;;;;;;;7368893;19;840;-68
2023/03/31 12:03:40;;;;;;;;;;;;;;;;;;7369191;19;789;-68
2023/03/31 12:06:09;;;;;;;;;;;;;;;;;;7368254;19;1278;-68
2023/03/31 12:08:37;;;;;;;;;;;;;;;;;;7367493;19;794;-68
2023/03/31 12:11:06;;;;;;;;;;;;;;;;;;7369126;19;860;-68
2023/03/31 12:13:34;;;;;;;;;;;;;;;;;;7368727;19;791;-68
2023/03/31 12:16:02;;;;;;;;;;;;;;;;;;7367654;19;1324;-68
2023/03/31 12:18:30;;;;;;;;;;;;;;;;;;7367000;19;1830;-68
2023/03/31 12:20:58;;;;;;;;;;;;;;;;;;7369025;19;865;-68
2023/03/31 12:23:26;;;;;;;;;;;;;;;;;;7368462;19;861;-67
2023/03/31 12:25:55;;;;;;;;;;;;;;;;;;7365373;19;1282;-67
2023/03/31 12:28:23;;;;;;;;;;;;;;;;;;7367954;19;841;-68
2023/03/31 12:30:51;;;;;;;;;;;;;;;;;;7367922;19;789;-68
2023/03/31 12:33:19;;;;;;;;;;;;;;;;;;7367171;19;774;-68
2023/03/31 12:35:47;;;;;;;;;;;;;;;;;;7367182;19;1352;-67
2023/03/31 12:38:15;;;;;;;;;;;;;;;;;;7367034;19;1865;-67
2023/03/31 12:40:44;;;;;;;;;;;;;;;;;;7368731;19;678;-68
2023/03/31 12:43:12;;;;;;;;;;;;;;;;;;7368127;19;805;-67
2023/03/31 12:45:40;;;;;;;;;;;;;;;;;;7368274;19;1305;-67
2023/03/31 12:48:08;;;;;;;;;;;;;;;;;;7367422;19;700;-68
2023/03/31 12:50:36;;;;;;;;;;;;;;;;;;7367299;19;763;-68
2023/03/31 12:53:04;;;;;;;;;;;;;;;;;;7366708;19;802;-68
2023/03/31 12:55:33;;;;;;;;;;;;;;;;;;7367161;19;815;-67
2023/03/31 12:58:01;;;;;;;;;;;;;;;;;;7362910;19;1468;-67
2023/03/31 13:00:30;;;;;;;;;;;;;;;;;;7365621;19;1841;-67
2023/03/31 13:02:58;;;;;;;;;;;;;;;;;;7367650;19;861;-67
2023/03/31 13:05:26;;;;;;;;;;;;;;;;;;7367650;19;803;-67
2023/03/31 13:07:55;;;;;;;;;;;;;;;;;;7362586;19;1332;-67
2023/03/31 13:10:23;;;;;;;;;;;;;;;;;;7367256;19;850;-68
2023/03/31 13:12:51;;;;;;;;;;;;;;;;;;7367804;19;819;-68
2023/03/31 13:15:19;;;;;;;;;;;;;;;;;;7366739;19;839;-68
2023/03/31 13:17:47;;;;;;;;;;;;;;;;;;7363593;19;1298;-67
2023/03/31 13:20:15;;;;;;;;;;;;;;;;;;7365003;19;1845;-67
2023/03/31 13:22:43;;;;;;;;;;;;;;;;;;7366888;19;812;-66
2023/03/31 13:25:12;;;;;;;;;;;;;;;;;;7365278;19;842;-67
2023/03/31 13:27:40;;;;;;;;;;;;;;;;;;7363077;19;1291;-67
2023/03/31 13:30:08;;;;;;;;;;;;;;;;;;7367060;19;786;-67
2023/03/31 13:32:38;;;;;;;;;;;;;;;;;;7364837;19;1024;-66
2023/03/31 13:35:06;;;;;;;;;;;;;;;;;;7366868;19;769;-67
2023/03/31 13:37:34;;;;;;;;;;;;;;;;;;7361832;19;1282;-67
2023/03/31 13:40:03;;;;;;;;;;;;;;;;;;7365908;19;1857;-67
2023/03/31 13:42:32;;;;;;;;;;;;;;;;;;7367147;19;866;-66
2023/03/31 13:45:00;;;;;;;;;;;;;;;;;;7367357;19;858;-67
2023/03/31 13:47:28;;;;;;;;;;;;;;;;;;7364220;19;1293;-68
2023/03/31 13:49:56;;;;;;;;;;;;;;;;;;7365712;19;796;-66
2023/03/31 13:52:24;;;;;;;;;;;;;;;;;;7366880;19;821;-66
2023/03/31 13:54:52;;;;;;;;;;;;;;;;;;7367225;19;857;-66
2023/03/31 13:57:20;;;;;;;;;;;;;;;;;;7365430;19;1324;-66
2023/03/31 13:59:49;;;;;;;;;;;;;;;;;;7364368;19;1842;-65
2023/03/31 14:02:17;;;;;;;;;;;;;;;;;;7366825;19;810;-65
2023/03/31 14:04:45;;;;;;;;;;;;;;;;;;7366075;19;811;-66
2023/03/31 14:07:13;;;;;;;;;;;;;;;;;;7364825;19;1280;-66
2023/03/31 14:09:45;;;;;;;;;;;;;;;;;;7365160;19;793;-66
2023/03/31 14:12:14;;;;;;;;;;;;;;;;;;7366345;19;775;-66
2023/03/31 14:14:42;;;;;;;;;;;;;;;;;;7366793;19;868;-66
2023/03/31 14:17:10;;;;;;;;;;;;;;;;;;7363124;19;1270;-67
2023/03/31 14:19:38;;;;;;;;;;;;;;;;;;7364335;19;1842;-68
2023/03/31 14:22:06;;;;;;;;;;;;;;;;;;7366208;19;854;-65
2023/03/31 14:24:34;;;;;;;;;;;;;;;;;;7369585;19;1326;-65
2023/03/31 14:27:02;;;;;;;;;;;;;;;;;;7363542;19;1281;-66
2023/03/31 14:29:31;;;;;;;;;;;;;;;;;;7365232;19;823;-65
2023/03/31 14:31:59;;;;;;;;;;;;;;;;;;7365525;19;851;-67
2023/03/31 14:34:27;;;;;;;;;;;;;;;;;;7364430;19;967;-68
2023/03/31 14:36:56;;;;;;;;;;;;;;;;;;7363051;19;1322;-66
2023/03/31 14:39:25;;;;;;;;;;;;;;;;;;7363342;19;1896;-66
2023/03/31 14:41:53;;;;;;;;;;;;;;;;;;7366074;19;811;-66
2023/03/31 14:44:21;;;;;;;;;;;;;;;;;;7365248;19;861;-67
2023/03/31 14:46:49;;;;;;;;;;;;;;;;;;7360725;19;1243;-66
2023/03/31 14:49:18;;;;;;;;;;;;;;;;;;7367859;19;819;-67
2023/03/31 14:51:47;;;;;;;;;;;;;;;;;;7371231;19;775;-67
2023/03/31 14:54:15;;;;;;;;;;;;;;;;;;7371334;19;898;-66
2023/03/31 14:56:43;;;;;;;;;;;;;;;;;;7369667;19;1242;-66
2023/03/31 14:59:11;;;;;;;;;;;;;;;;;;7370399;19;1841;-65
2023/03/31 15:01:39;;;;;;;;;;;;;;;;;;7370819;19;853;-66
2023/03/31 15:04:08;;;;;;;;;;;;;;;;;;7371495;19;865;-67
2023/03/31 15:06:38;;;;;;;;;;;;;;;;;;7368470;19;1278;-65
2023/03/31 15:09:07;;;;;;;;;;;;;;;;;;7370325;19;704;-67
2023/03/31 15:11:35;;;;;;;;;;;;;;;;;;7370921;19;815;-67
2023/03/31 15:14:03;;;;;;;;;;;;;;;;;;7370494;19;810;-66
2023/03/31 15:16:31;;;;;;;;;;;;;;;;;;7369536;19;1768;-65
2023/03/31 15:18:59;;;;;;;;;;;;;;;;;;7367960;19;731;-65
2023/03/31 15:21:27;;;;;;;;;;;;;;;;;;7368955;19;851;-65
2023/03/31 15:23:55;;;;;;;;;;;;;;;;;;7370820;19;865;-66
2023/03/31 15:26:25;;;;;;;;;;;;;;;;;;7369599;19;1324;-65
2023/03/31 15:28:53;;;;;;;;;;;;;;;;;;7368743;19;829;-65
2023/03/31 15:31:23;;;;;;;;;;;;;;;;;;7371306;19;789;-65
2023/03/31 15:33:51;;;;;;;;;;;;;;;;;;7371249;19;821;-65
2023/03/31 15:36:19;;;;;;;;;;;;;;;;;;7369995;19;1301;-66
2023/03/31 15:38:48;;;;;;;;;;;;;;;;;;7369537;19;852;-66
2023/03/31 15:41:16;;;;;;;;;;;;;;;;;;7368938;19;1845;-65
2023/03/31 15:43:44;;;;;;;;;;;;;;;;;;7370425;19;853;-65
2023/03/31 15:46:12;;;;;;;;;;;;;;;;;;7369358;19;1302;-65
2023/03/31 15:48:41;;;;;;;;;;;;;;;;;;7369875;19;797;-65
2023/03/31 15:51:09;;;;;;;;;;;;;;;;;;7369578;19;822;-67
2023/03/31 15:53:37;;;;;;;;;;;;;;;;;;7370770;19;972;-69
2023/03/31 15:56:06;;;;;;;;;;;;;;;;;;7368869;19;1266;-67
2023/03/31 15:58:34;;;;;;;;;;;;;;;;;;7369712;19;826;-67
2023/03/31 16:01:03;;;;;;;;;;;;;;;;;;7366661;19;1853;-66
2023/03/31 16:03:34;;;;;;;;;;;;;;;;;;7369921;19;929;-66
2023/03/31 16:06:02;;;;;;;;;;;;;;;;;;7369528;19;1426;-66
2023/03/31 16:08:30;;;;;;;;;;;;;;;;;;7369012;19;826;-66
2023/03/31 16:10:59;;;;;;;;;;;;;;;;;;7369952;19;802;-66
2023/03/31 16:13:27;;;;;;;;;;;;;;;;;;7370320;19;864;-65
2023/03/31 16:15:55;;;;;;;;;;;;;;;;;;7368959;19;1388;-66
2023/03/31 16:18:23;;;;;;;;;;;;;;;;;;7368696;19;818;-67
2023/03/31 16:20:51;;;;;;;;;;;;;;;;;;7367393;19;1851;-65
2023/03/31 16:23:20;;;;;;;;;;;;;;;;;;7369137;19;809;-66
2023/03/31 16:25:48;;;;;;;;;;;;;;;;;;7369406;19;1305;-69
2023/03/31 16:28:16;;;;;;;;;;;;;;;;;;7368233;19;827;-65
2023/03/31 16:30:44;;;;;;;;;;;;;;;;;;7367512;19;787;-70
2023/03/31 16:33:12;;;;;;;;;;;;;;;;;;7368299;19;838;-68
2023/03/31 16:35:41;;;;;;;;;;;;;;;;;;7368120;19;1360;-67
2023/03/31 16:38:09;;;;;;;;;;;;;;;;;;7368103;19;846;-66
2023/03/31 16:40:37;;;;;;;;;;;;;;;;;;7367450;19;1851;-67
2023/03/31 16:43:05;;;;;;;;;;;;;;;;;;7367497;19;1244;-67
2023/03/31 16:45:33;;;;;;;;;;;;;;;;;;7368314;19;804;-66
2023/03/31 16:48:02;;;;;;;;;;;;;;;;;;7364882;19;1309;-66
2023/03/31 16:50:30;;;;;;;;;;;;;;;;;;7366616;19;976;-67
2023/03/31 16:52:59;;;;;;;;;;;;;;;;;;7368116;19;793;-67
2023/03/31 16:55:28;;;;;;;;;;;;;;;;;;7368551;19;799;-67
2023/03/31 16:57:57;;;;;;;;;;;;;;;;;;7365449;19;1274;-67
2023/03/31 17:00:25;;;;;;;;;;;;;;;;;;7367715;19;1850;-66
2023/03/31 17:02:53;;;;;;;;;;;;;;;;;;7368803;19;849;-67
2023/03/31 17:05:21;;;;;;;;;;;;;;;;;;7367904;19;791;-67
2023/03/31 17:07:49;;;;;;;;;;;;;;;;;;7367996;19;1271;-67
2023/03/31 17:10:18;;;;;;;;;;;;;;;;;;7371272;19;907;-68
2023/03/31 17:12:46;;;;;;;;;;;;;;;;;;7371156;19;817;-69
2023/03/31 17:15:14;;;;;;;;;;;;;;;;;;7372100;19;814;-70
2023/03/31 17:17:42;;;;;;;;;;;;;;;;;;7368366;19;1274;-67
2023/03/31 17:20:10;;;;;;;;;;;;;;;;;;7369613;19;1849;-68